Kinston, North Carolina
Current Conditions -  °F | °C
As of 12:15 AM on Saturday 25 Oct 2014 (Local Time) from KISO Reporting Station
Clear Clear  
Wind Chill: 46°   Ceiling: Unl
Heat Index: 46°   Visibility: 7mi
Dew Point: 45°   Wind: 3mph
Humidity: 97%   Direction: 220°SW
Pressure: 29.99"   Gusts: NA
Location:  35.27°N, 77.58°W
Report Text: KISO 250415Z AUTO 22003KT 7SM CLR 08/07 A2999 RMK AO2 T00780074
Loading
Personal Weather Stations






























Interactive Weather Map
Tropical Storm Tracking
New forecast layout! Learn more

10-Day Weather Forecast

Advertisements
Track Severe Weather on mobile